sensor_id;sensor_type;location;lat;lon;timestamp;P1;durP1;ratioP1;P2;durP2;ratioP2
39518;SDS011;25200;53.394;10.414;2023-07-20T00:00:29;5.50;;;2.60;;
39518;SDS011;25200;53.394;10.414;2023-07-20T00:03:09;4.47;;;2.40;;
39518;SDS011;25200;53.394;10.414;2023-07-20T00:05:37;4.70;;;2.55;;
39518;SDS011;25200;53.394;10.414;2023-07-20T00:08:04;4.75;;;2.40;;
39518;SDS011;25200;53.394;10.414;2023-07-20T00:10:29;6.30;;;2.53;;
39518;SDS011;25200;53.394;10.414;2023-07-20T00:12:55;4.45;;;2.13;;
39518;SDS011;25200;53.394;10.414;2023-07-20T00:15:20;4.13;;;2.55;;
39518;SDS011;25200;53.394;10.414;2023-07-20T00:17:46;11.43;;;2.90;;
39518;SDS011;25200;53.394;10.414;2023-07-20T00:20:12;4.90;;;2.60;;
39518;SDS011;25200;53.394;10.414;2023-07-20T00:22:38;4.22;;;2.40;;
39518;SDS011;25200;53.394;10.414;2023-07-20T00:25:03;5.53;;;2.20;;
39518;SDS011;25200;53.394;10.414;2023-07-20T00:27:29;5.97;;;2.13;;
39518;SDS011;25200;53.394;10.414;2023-07-20T00:29:55;7.85;;;2.40;;
39518;SDS011;25200;53.394;10.414;2023-07-20T00:32:21;8.68;;;2.30;;
39518;SDS011;25200;53.394;10.414;2023-07-20T00:34:46;5.75;;;2.33;;
39518;SDS011;25200;53.394;10.414;2023-07-20T00:37:12;5.70;;;1.98;;
39518;SDS011;25200;53.394;10.414;2023-07-20T00:39:38;4.93;;;1.90;;
39518;SDS011;25200;53.394;10.414;2023-07-20T00:42:04;4.70;;;1.88;;
39518;SDS011;25200;53.394;10.414;2023-07-20T00:44:30;6.10;;;2.17;;
39518;SDS011;25200;53.394;10.414;2023-07-20T00:46:55;4.63;;;2.25;;
39518;SDS011;25200;53.394;10.414;2023-07-20T00:49:22;8.15;;;2.08;;
39518;SDS011;25200;53.394;10.414;2023-07-20T00:51:48;6.55;;;2.20;;
39518;SDS011;25200;53.394;10.414;2023-07-20T00:54:15;7.30;;;1.92;;
39518;SDS011;25200;53.394;10.414;2023-07-20T00:56:41;4.10;;;1.75;;
39518;SDS011;25200;53.394;10.414;2023-07-20T00:59:08;4.97;;;1.90;;
39518;SDS011;25200;53.394;10.414;2023-07-20T01:01:34;3.63;;;1.80;;
39518;SDS011;25200;53.394;10.414;2023-07-20T01:04:00;4.90;;;2.00;;
39518;SDS011;25200;53.394;10.414;2023-07-20T01:06:30;3.90;;;1.90;;
39518;SDS011;25200;53.394;10.414;2023-07-20T01:14:07;3.78;;;2.00;;
39518;SDS011;25200;53.394;10.414;2023-07-20T01:16:34;3.42;;;1.73;;
39518;SDS011;25200;53.394;10.414;2023-07-20T01:18:59;4.85;;;1.88;;
39518;SDS011;25200;53.394;10.414;2023-07-20T01:21:34;5.07;;;2.00;;
39518;SDS011;25200;53.394;10.414;2023-07-20T01:24:20;5.40;;;1.98;;
39518;SDS011;25200;53.394;10.414;2023-07-20T01:32:29;3.95;;;1.90;;
39518;SDS011;25200;53.394;10.414;2023-07-20T01:34:56;6.68;;;2.28;;
39518;SDS011;25200;53.394;10.414;2023-07-20T01:37:24;4.80;;;1.90;;
39518;SDS011;25200;53.394;10.414;2023-07-20T01:39:54;4.65;;;2.10;;
39518;SDS011;25200;53.394;10.414;2023-07-20T01:42:24;3.85;;;2.00;;
39518;SDS011;25200;53.394;10.414;2023-07-20T01:44:50;6.82;;;2.10;;
39518;SDS011;25200;53.394;10.414;2023-07-20T01:47:17;3.65;;;1.90;;
39518;SDS011;25200;53.394;10.414;2023-07-20T01:49:43;3.45;;;1.88;;
39518;SDS011;25200;53.394;10.414;2023-07-20T01:52:08;4.45;;;2.00;;
39518;SDS011;25200;53.394;10.414;2023-07-20T01:54:34;5.20;;;2.13;;
39518;SDS011;25200;53.394;10.414;2023-07-20T01:57:00;3.85;;;1.90;;
39518;SDS011;25200;53.394;10.414;2023-07-20T01:59:25;5.63;;;2.20;;
39518;SDS011;25200;53.394;10.414;2023-07-20T02:01:52;7.75;;;2.38;;
39518;SDS011;25200;53.394;10.414;2023-07-20T02:04:17;8.57;;;2.17;;
39518;SDS011;25200;53.394;10.414;2023-07-20T02:06:43;6.20;;;2.10;;
39518;SDS011;25200;53.394;10.414;2023-07-20T02:09:09;5.00;;;2.03;;
39518;SDS011;25200;53.394;10.414;2023-07-20T02:11:34;4.13;;;2.08;;
39518;SDS011;25200;53.394;10.414;2023-07-20T02:14:00;5.88;;;2.08;;
39518;SDS011;25200;53.394;10.414;2023-07-20T02:16:26;4.82;;;2.42;;
39518;SDS011;25200;53.394;10.414;2023-07-20T02:18:52;6.63;;;2.33;;
39518;SDS011;25200;53.394;10.414;2023-07-20T02:21:18;4.78;;;2.30;;
39518;SDS011;25200;53.394;10.414;2023-07-20T02:23:43;5.78;;;2.63;;
39518;SDS011;25200;53.394;10.414;2023-07-20T02:26:09;8.43;;;2.30;;
39518;SDS011;25200;53.394;10.414;2023-07-20T02:28:35;5.65;;;2.30;;
39518;SDS011;25200;53.394;10.414;2023-07-20T02:31:00;9.40;;;2.83;;
39518;SDS011;25200;53.394;10.414;2023-07-20T02:33:26;5.88;;;2.33;;
39518;SDS011;25200;53.394;10.414;2023-07-20T02:35:51;5.90;;;2.13;;
39518;SDS011;25200;53.394;10.414;2023-07-20T02:38:17;6.95;;;2.47;;
39518;SDS011;25200;53.394;10.414;2023-07-20T02:40:43;7.15;;;2.08;;
39518;SDS011;25200;53.394;10.414;2023-07-20T02:43:09;4.05;;;2.05;;
39518;SDS011;25200;53.394;10.414;2023-07-20T02:45:35;6.57;;;2.33;;
39518;SDS011;25200;53.394;10.414;2023-07-20T02:48:04;6.22;;;2.45;;
39518;SDS011;25200;53.394;10.414;2023-07-20T02:50:33;5.50;;;2.15;;
39518;SDS011;25200;53.394;10.414;2023-07-20T02:52:59;5.95;;;2.33;;
39518;SDS011;25200;53.394;10.414;2023-07-20T02:55:25;5.95;;;2.38;;
39518;SDS011;25200;53.394;10.414;2023-07-20T02:57:51;4.82;;;2.40;;
39518;SDS011;25200;53.394;10.414;2023-07-20T03:00:16;8.35;;;2.83;;
39518;SDS011;25200;53.394;10.414;2023-07-20T03:02:44;4.63;;;2.10;;
39518;SDS011;25200;53.394;10.414;2023-07-20T03:05:12;4.70;;;2.28;;
39518;SDS011;25200;53.394;10.414;2023-07-20T03:07:38;3.90;;;2.25;;
39518;SDS011;25200;53.394;10.414;2023-07-20T03:10:04;6.55;;;2.70;;
39518;SDS011;25200;53.394;10.414;2023-07-20T03:12:34;5.43;;;2.42;;
39518;SDS011;25200;53.394;10.414;2023-07-20T03:15:00;5.72;;;2.55;;
39518;SDS011;25200;53.394;10.414;2023-07-20T03:17:29;7.53;;;3.33;;
39518;SDS011;25200;53.394;10.414;2023-07-20T03:19:55;6.68;;;2.80;;
39518;SDS011;25200;53.394;10.414;2023-07-20T03:22:20;5.63;;;2.80;;
39518;SDS011;25200;53.394;10.414;2023-07-20T03:24:47;6.55;;;2.35;;
39518;SDS011;25200;53.394;10.414;2023-07-20T03:27:13;6.32;;;2.70;;
39518;SDS011;25200;53.394;10.414;2023-07-20T03:29:38;7.13;;;2.63;;
39518;SDS011;25200;53.394;10.414;2023-07-20T03:32:04;6.00;;;2.40;;
39518;SDS011;25200;53.394;10.414;2023-07-20T03:34:30;4.47;;;2.80;;
39518;SDS011;25200;53.394;10.414;2023-07-20T03:36:56;4.00;;;2.20;;
39518;SDS011;25200;53.394;10.414;2023-07-20T03:39:22;7.65;;;2.92;;
39518;SDS011;25200;53.394;10.414;2023-07-20T03:41:48;5.10;;;2.20;;
39518;SDS011;25200;53.394;10.414;2023-07-20T03:44:13;4.72;;;2.60;;
39518;SDS011;25200;53.394;10.414;2023-07-20T03:46:39;4.32;;;2.38;;
39518;SDS011;25200;53.394;10.414;2023-07-20T03:49:05;6.05;;;3.33;;
39518;SDS011;25200;53.394;10.414;2023-07-20T03:51:31;6.78;;;3.13;;
39518;SDS011;25200;53.394;10.414;2023-07-20T03:53:57;7.95;;;3.08;;
39518;SDS011;25200;53.394;10.414;2023-07-20T03:56:23;5.50;;;2.78;;
39518;SDS011;25200;53.394;10.414;2023-07-20T03:58:49;7.05;;;3.08;;
39518;SDS011;25200;53.394;10.414;2023-07-20T04:01:15;7.18;;;2.70;;
39518;SDS011;25200;53.394;10.414;2023-07-20T04:03:41;8.52;;;2.75;;
39518;SDS011;25200;53.394;10.414;2023-07-20T04:06:08;6.15;;;2.70;;
39518;SDS011;25200;53.394;10.414;2023-07-20T04:08:34;8.15;;;2.72;;
39518;SDS011;25200;53.394;10.414;2023-07-20T04:11:01;5.78;;;2.78;;
39518;SDS011;25200;53.394;10.414;2023-07-20T04:13:27;8.13;;;3.08;;
39518;SDS011;25200;53.394;10.414;2023-07-20T04:15:53;4.30;;;2.13;;
39518;SDS011;25200;53.394;10.414;2023-07-20T04:18:20;5.75;;;2.63;;
39518;SDS011;25200;53.394;10.414;2023-07-20T04:20:45;7.50;;;2.80;;
39518;SDS011;25200;53.394;10.414;2023-07-20T04:23:11;6.50;;;2.60;;
39518;SDS011;25200;53.394;10.414;2023-07-20T04:25:39;5.65;;;2.15;;
39518;SDS011;25200;53.394;10.414;2023-07-20T04:28:06;7.28;;;2.50;;
39518;SDS011;25200;53.394;10.414;2023-07-20T04:30:35;5.13;;;2.17;;
39518;SDS011;25200;53.394;10.414;2023-07-20T04:33:02;7.40;;;2.40;;
39518;SDS011;25200;53.394;10.414;2023-07-20T04:38:13;4.03;;;2.08;;
39518;SDS011;25200;53.394;10.414;2023-07-20T04:40:41;4.05;;;1.98;;
39518;SDS011;25200;53.394;10.414;2023-07-20T04:43:07;5.78;;;2.20;;
39518;SDS011;25200;53.394;10.414;2023-07-20T04:45:33;3.60;;;2.10;;
39518;SDS011;25200;53.394;10.414;2023-07-20T04:47:58;5.82;;;2.50;;
39518;SDS011;25200;53.394;10.414;2023-07-20T04:50:24;6.72;;;2.25;;
39518;SDS011;25200;53.394;10.414;2023-07-20T04:52:50;5.20;;;2.10;;
39518;SDS011;25200;53.394;10.414;2023-07-20T04:55:17;3.38;;;1.70;;
39518;SDS011;25200;53.394;10.414;2023-07-20T04:57:43;4.13;;;1.90;;
39518;SDS011;25200;53.394;10.414;2023-07-20T05:00:08;3.92;;;1.73;;
39518;SDS011;25200;53.394;10.414;2023-07-20T05:02:36;3.13;;;1.95;;
39518;SDS011;25200;53.394;10.414;2023-07-20T05:05:03;4.45;;;1.90;;
39518;SDS011;25200;53.394;10.414;2023-07-20T05:07:30;3.28;;;1.77;;
39518;SDS011;25200;53.394;10.414;2023-07-20T05:09:56;3.28;;;1.80;;
39518;SDS011;25200;53.394;10.414;2023-07-20T05:12:22;4.70;;;1.88;;
39518;SDS011;25200;53.394;10.414;2023-07-20T05:14:48;3.75;;;2.00;;
39518;SDS011;25200;53.394;10.414;2023-07-20T05:17:14;3.58;;;1.83;;
39518;SDS011;25200;53.394;10.414;2023-07-20T05:19:39;4.28;;;1.63;;
39518;SDS011;25200;53.394;10.414;2023-07-20T05:22:05;4.18;;;1.80;;
39518;SDS011;25200;53.394;10.414;2023-07-20T05:24:31;3.60;;;1.60;;
39518;SDS011;25200;53.394;10.414;2023-07-20T05:26:57;2.63;;;1.58;;
39518;SDS011;25200;53.394;10.414;2023-07-20T05:29:23;4.03;;;1.75;;
39518;SDS011;25200;53.394;10.414;2023-07-20T05:31:50;4.57;;;1.83;;
39518;SDS011;25200;53.394;10.414;2023-07-20T05:34:15;5.05;;;1.88;;
39518;SDS011;25200;53.394;10.414;2023-07-20T05:39:34;3.70;;;1.80;;
39518;SDS011;25200;53.394;10.414;2023-07-20T05:42:00;5.07;;;2.00;;
39518;SDS011;25200;53.394;10.414;2023-07-20T05:44:26;4.53;;;1.98;;
39518;SDS011;25200;53.394;10.414;2023-07-20T05:46:51;4.10;;;1.88;;
39518;SDS011;25200;53.394;10.414;2023-07-20T05:49:17;4.10;;;2.00;;
39518;SDS011;25200;53.394;10.414;2023-07-20T05:51:43;4.07;;;1.80;;
39518;SDS011;25200;53.394;10.414;2023-07-20T05:54:08;3.97;;;1.50;;
39518;SDS011;25200;53.394;10.414;2023-07-20T05:56:34;3.47;;;1.85;;
39518;SDS011;25200;53.394;10.414;2023-07-20T05:58:59;3.30;;;1.83;;
39518;SDS011;25200;53.394;10.414;2023-07-20T06:01:25;4.07;;;1.90;;
39518;SDS011;25200;53.394;10.414;2023-07-20T06:03:53;3.83;;;1.52;;
39518;SDS011;25200;53.394;10.414;2023-07-20T06:06:18;2.80;;;1.50;;
39518;SDS011;25200;53.394;10.414;2023-07-20T06:08:44;3.65;;;1.58;;
39518;SDS011;25200;53.394;10.414;2023-07-20T06:11:10;2.28;;;1.40;;
39518;SDS011;25200;53.394;10.414;2023-07-20T06:13:36;2.63;;;1.33;;
39518;SDS011;25200;53.394;10.414;2023-07-20T06:16:02;3.10;;;1.60;;
39518;SDS011;25200;53.394;10.414;2023-07-20T06:18:28;3.13;;;1.65;;
39518;SDS011;25200;53.394;10.414;2023-07-20T06:20:55;2.47;;;1.30;;
39518;SDS011;25200;53.394;10.414;2023-07-20T06:23:20;3.33;;;1.30;;
39518;SDS011;25200;53.394;10.414;2023-07-20T06:25:46;2.45;;;1.30;;
39518;SDS011;25200;53.394;10.414;2023-07-20T06:28:13;2.08;;;1.25;;
39518;SDS011;25200;53.394;10.414;2023-07-20T06:30:38;5.40;;;1.15;;
39518;SDS011;25200;53.394;10.414;2023-07-20T06:33:04;4.20;;;1.35;;
39518;SDS011;25200;53.394;10.414;2023-07-20T06:35:30;1.95;;;1.25;;
39518;SDS011;25200;53.394;10.414;2023-07-20T06:37:56;3.05;;;1.23;;
39518;SDS011;25200;53.394;10.414;2023-07-20T06:40:22;4.03;;;1.30;;
39518;SDS011;25200;53.394;10.414;2023-07-20T06:42:48;2.80;;;1.40;;
39518;SDS011;25200;53.394;10.414;2023-07-20T06:45:14;1.83;;;1.25;;
39518;SDS011;25200;53.394;10.414;2023-07-20T06:47:39;2.97;;;1.30;;
39518;SDS011;25200;53.394;10.414;2023-07-20T06:50:08;2.33;;;1.30;;
39518;SDS011;25200;53.394;10.414;2023-07-20T06:52:35;2.97;;;1.50;;
39518;SDS011;25200;53.394;10.414;2023-07-20T06:55:01;3.35;;;1.50;;
39518;SDS011;25200;53.394;10.414;2023-07-20T06:57:27;3.50;;;1.23;;
39518;SDS011;25200;53.394;10.414;2023-07-20T06:59:53;3.10;;;1.63;;
39518;SDS011;25200;53.394;10.414;2023-07-20T07:02:18;3.10;;;1.48;;
39518;SDS011;25200;53.394;10.414;2023-07-20T07:04:44;2.88;;;1.30;;
39518;SDS011;25200;53.394;10.414;2023-07-20T07:07:11;3.20;;;1.50;;
39518;SDS011;25200;53.394;10.414;2023-07-20T07:09:40;5.22;;;1.50;;
39518;SDS011;25200;53.394;10.414;2023-07-20T07:12:06;2.95;;;1.23;;
39518;SDS011;25200;53.394;10.414;2023-07-20T07:14:33;2.40;;;1.30;;
39518;SDS011;25200;53.394;10.414;2023-07-20T07:16:59;2.95;;;1.15;;
39518;SDS011;25200;53.394;10.414;2023-07-20T07:19:25;5.68;;;1.30;;
39518;SDS011;25200;53.394;10.414;2023-07-20T07:21:51;2.25;;;1.10;;
39518;SDS011;25200;53.394;10.414;2023-07-20T07:24:17;3.20;;;1.15;;
39518;SDS011;25200;53.394;10.414;2023-07-20T07:26:42;4.45;;;1.13;;
39518;SDS011;25200;53.394;10.414;2023-07-20T07:29:08;1.67;;;1.00;;
39518;SDS011;25200;53.394;10.414;2023-07-20T07:31:34;2.58;;;1.13;;
39518;SDS011;25200;53.394;10.414;2023-07-20T07:34:04;3.80;;;1.15;;
39518;SDS011;25200;53.394;10.414;2023-07-20T07:36:30;3.42;;;1.35;;
39518;SDS011;25200;53.394;10.414;2023-07-20T07:38:56;2.47;;;1.15;;
39518;SDS011;25200;53.394;10.414;2023-07-20T07:41:22;2.88;;;1.20;;
39518;SDS011;25200;53.394;10.414;2023-07-20T07:43:48;3.35;;;1.20;;
39518;SDS011;25200;53.394;10.414;2023-07-20T07:46:14;3.20;;;1.08;;
39518;SDS011;25200;53.394;10.414;2023-07-20T07:48:40;2.15;;;1.10;;
39518;SDS011;25200;53.394;10.414;2023-07-20T07:51:07;4.57;;;1.25;;
39518;SDS011;25200;53.394;10.414;2023-07-20T07:53:32;2.75;;;1.10;;
39518;SDS011;25200;53.394;10.414;2023-07-20T07:56:00;2.45;;;1.00;;
39518;SDS011;25200;53.394;10.414;2023-07-20T07:58:28;1.80;;;1.00;;
39518;SDS011;25200;53.394;10.414;2023-07-20T08:00:54;2.20;;;1.30;;
39518;SDS011;25200;53.394;10.414;2023-07-20T08:03:19;5.22;;;1.27;;
39518;SDS011;25200;53.394;10.414;2023-07-20T08:05:45;4.85;;;1.60;;
39518;SDS011;25200;53.394;10.414;2023-07-20T08:08:11;5.20;;;1.30;;
39518;SDS011;25200;53.394;10.414;2023-07-20T08:10:36;5.40;;;1.50;;
39518;SDS011;25200;53.394;10.414;2023-07-20T08:13:02;5.68;;;1.77;;
39518;SDS011;25200;53.394;10.414;2023-07-20T08:15:28;4.55;;;1.25;;
39518;SDS011;25200;53.394;10.414;2023-07-20T08:17:54;6.25;;;1.10;;
39518;SDS011;25200;53.394;10.414;2023-07-20T08:20:19;3.70;;;1.40;;
39518;SDS011;25200;53.394;10.414;2023-07-20T08:22:51;3.78;;;1.52;;
39518;SDS011;25200;53.394;10.414;2023-07-20T08:25:20;9.15;;;1.45;;
39518;SDS011;25200;53.394;10.414;2023-07-20T08:27:46;6.50;;;1.55;;
39518;SDS011;25200;53.394;10.414;2023-07-20T08:30:12;4.22;;;1.42;;
39518;SDS011;25200;53.394;10.414;2023-07-20T08:32:38;4.93;;;1.60;;
39518;SDS011;25200;53.394;10.414;2023-07-20T08:35:04;6.05;;;1.27;;
39518;SDS011;25200;53.394;10.414;2023-07-20T08:37:31;4.50;;;1.58;;
39518;SDS011;25200;53.394;10.414;2023-07-20T08:39:56;4.95;;;1.45;;
39518;SDS011;25200;53.394;10.414;2023-07-20T08:42:22;5.47;;;1.38;;
39518;SDS011;25200;53.394;10.414;2023-07-20T08:44:48;7.32;;;1.23;;
39518;SDS011;25200;53.394;10.414;2023-07-20T08:47:15;2.17;;;1.17;;
39518;SDS011;25200;53.394;10.414;2023-07-20T08:49:41;7.22;;;1.40;;
39518;SDS011;25200;53.394;10.414;2023-07-20T08:52:07;3.30;;;1.50;;
39518;SDS011;25200;53.394;10.414;2023-07-20T08:54:34;2.40;;;1.25;;
39518;SDS011;25200;53.394;10.414;2023-07-20T08:57:04;4.88;;;1.65;;
39518;SDS011;25200;53.394;10.414;2023-07-20T08:59:31;3.45;;;1.30;;
39518;SDS011;25200;53.394;10.414;2023-07-20T09:02:00;6.45;;;1.52;;
39518;SDS011;25200;53.394;10.414;2023-07-20T09:04:27;4.90;;;1.40;;
39518;SDS011;25200;53.394;10.414;2023-07-20T09:06:53;6.45;;;1.23;;
39518;SDS011;25200;53.394;10.414;2023-07-20T09:09:18;5.53;;;1.33;;
39518;SDS011;25200;53.394;10.414;2023-07-20T09:11:48;2.97;;;1.40;;
39518;SDS011;25200;53.394;10.414;2023-07-20T09:14:14;3.67;;;1.40;;
39518;SDS011;25200;53.394;10.414;2023-07-20T09:16:49;3.38;;;1.30;;
39518;SDS011;25200;53.394;10.414;2023-07-20T09:19:17;3.63;;;1.45;;
39518;SDS011;25200;53.394;10.414;2023-07-20T09:21:50;3.72;;;1.35;;
39518;SDS011;25200;53.394;10.414;2023-07-20T09:24:17;5.03;;;1.48;;
39518;SDS011;25200;53.394;10.414;2023-07-20T09:26:44;6.15;;;1.50;;
39518;SDS011;25200;53.394;10.414;2023-07-20T09:29:18;3.90;;;1.60;;
39518;SDS011;25200;53.394;10.414;2023-07-20T09:32:03;6.85;;;1.80;;
39518;SDS011;25200;53.394;10.414;2023-07-20T09:34:29;4.50;;;1.33;;
39518;SDS011;25200;53.394;10.414;2023-07-20T09:36:58;4.47;;;1.73;;
39518;SDS011;25200;53.394;10.414;2023-07-20T09:39:24;4.07;;;1.67;;
39518;SDS011;25200;53.394;10.414;2023-07-20T09:41:51;7.00;;;1.60;;
39518;SDS011;25200;53.394;10.414;2023-07-20T09:44:17;4.75;;;1.60;;
39518;SDS011;25200;53.394;10.414;2023-07-20T09:49:12;3.97;;;1.70;;
39518;SDS011;25200;53.394;10.414;2023-07-20T09:51:39;4.57;;;1.85;;
39518;SDS011;25200;53.394;10.414;2023-07-20T09:54:07;5.65;;;1.73;;
39518;SDS011;25200;53.394;10.414;2023-07-20T09:56:33;3.45;;;1.58;;
39518;SDS011;25200;53.394;10.414;2023-07-20T09:59:00;5.10;;;1.50;;
39518;SDS011;25200;53.394;10.414;2023-07-20T10:01:25;5.82;;;1.70;;
39518;SDS011;25200;53.394;10.414;2023-07-20T10:03:54;5.15;;;1.83;;
39518;SDS011;25200;53.394;10.414;2023-07-20T10:06:23;4.30;;;1.77;;
39518;SDS011;25200;53.394;10.414;2023-07-20T10:08:52;5.07;;;1.75;;
39518;SDS011;25200;53.394;10.414;2023-07-20T10:11:21;4.95;;;1.90;;
39518;SDS011;25200;53.394;10.414;2023-07-20T10:13:52;4.40;;;1.60;;
39518;SDS011;25200;53.394;10.414;2023-07-20T10:16:26;3.72;;;1.52;;
39518;SDS011;25200;53.394;10.414;2023-07-20T10:21:42;4.72;;;1.70;;
39518;SDS011;25200;53.394;10.414;2023-07-20T10:24:12;5.18;;;1.80;;
39518;SDS011;25200;53.394;10.414;2023-07-20T10:26:39;3.78;;;1.60;;
39518;SDS011;25200;53.394;10.414;2023-07-20T10:29:05;7.75;;;1.95;;
39518;SDS011;25200;53.394;10.414;2023-07-20T10:31:31;7.20;;;2.03;;
39518;SDS011;25200;53.394;10.414;2023-07-20T10:33:58;8.13;;;2.00;;
39518;SDS011;25200;53.394;10.414;2023-07-20T10:36:25;5.10;;;1.70;;
39518;SDS011;25200;53.394;10.414;2023-07-20T10:38:55;7.82;;;1.98;;
39518;SDS011;25200;53.394;10.414;2023-07-20T10:44:01;5.80;;;1.50;;
39518;SDS011;25200;53.394;10.414;2023-07-20T10:49:04;6.78;;;1.55;;
39518;SDS011;25200;53.394;10.414;2023-07-20T10:51:55;4.30;;;1.52;;
39518;SDS011;25200;53.394;10.414;2023-07-20T10:56:48;2.75;;;1.27;;
39518;SDS011;25200;53.394;10.414;2023-07-20T11:02:00;3.15;;;1.13;;
39518;SDS011;25200;53.394;10.414;2023-07-20T11:04:41;3.85;;;1.23;;
39518;SDS011;25200;53.394;10.414;2023-07-20T11:07:08;3.72;;;1.17;;
39518;SDS011;25200;53.394;10.414;2023-07-20T11:09:34;3.83;;;1.10;;
39518;SDS011;25200;53.394;10.414;2023-07-20T11:12:14;2.70;;;1.08;;
39518;SDS011;25200;53.394;10.414;2023-07-20T11:14:41;5.38;;;1.20;;
39518;SDS011;25200;53.394;10.414;2023-07-20T11:17:11;4.65;;;1.02;;
39518;SDS011;25200;53.394;10.414;2023-07-20T11:19:38;6.65;;;1.13;;
39518;SDS011;25200;53.394;10.414;2023-07-20T11:22:05;2.83;;;1.00;;
39518;SDS011;25200;53.394;10.414;2023-07-20T11:24:37;4.05;;;1.10;;
39518;SDS011;25200;53.394;10.414;2023-07-20T11:27:04;5.20;;;0.98;;
39518;SDS011;25200;53.394;10.414;2023-07-20T11:29:30;6.60;;;1.27;;
39518;SDS011;25200;53.394;10.414;2023-07-20T11:31:56;4.93;;;1.40;;
39518;SDS011;25200;53.394;10.414;2023-07-20T11:34:23;2.42;;;0.77;;
39518;SDS011;25200;53.394;10.414;2023-07-20T11:36:50;2.80;;;0.98;;
39518;SDS011;25200;53.394;10.414;2023-07-20T11:39:17;3.30;;;1.08;;
39518;SDS011;25200;53.394;10.414;2023-07-20T11:41:50;2.22;;;0.70;;
39518;SDS011;25200;53.394;10.414;2023-07-20T11:44:18;4.05;;;0.82;;
39518;SDS011;25200;53.394;10.414;2023-07-20T11:46:46;2.72;;;0.70;;
39518;SDS011;25200;53.394;10.414;2023-07-20T11:49:12;2.53;;;0.70;;
39518;SDS011;25200;53.394;10.414;2023-07-20T11:51:38;3.58;;;0.73;;
39518;SDS011;25200;53.394;10.414;2023-07-20T11:54:05;3.53;;;0.68;;
39518;SDS011;25200;53.394;10.414;2023-07-20T11:56:33;2.08;;;0.52;;
39518;SDS011;25200;53.394;10.414;2023-07-20T11:58:59;0.88;;;0.30;;
39518;SDS011;25200;53.394;10.414;2023-07-20T12:01:26;2.28;;;0.30;;
39518;SDS011;25200;53.394;10.414;2023-07-20T12:04:00;0.63;;;0.30;;
39518;SDS011;25200;53.394;10.414;2023-07-20T12:06:28;1.60;;;0.40;;
39518;SDS011;25200;53.394;10.414;2023-07-20T12:08:55;1.13;;;0.38;;
39518;SDS011;25200;53.394;10.414;2023-07-20T12:11:34;1.52;;;0.45;;
39518;SDS011;25200;53.394;10.414;2023-07-20T12:14:02;1.45;;;0.40;;
39518;SDS011;25200;53.394;10.414;2023-07-20T12:16:37;1.55;;;0.60;;
39518;SDS011;25200;53.394;10.414;2023-07-20T12:19:04;3.58;;;0.70;;
39518;SDS011;25200;53.394;10.414;2023-07-20T12:21:36;1.30;;;0.52;;
39518;SDS011;25200;53.394;10.414;2023-07-20T12:24:03;2.47;;;0.50;;
39518;SDS011;25200;53.394;10.414;2023-07-20T12:26:30;2.40;;;0.60;;
39518;SDS011;25200;53.394;10.414;2023-07-20T12:28:57;1.40;;;0.57;;
39518;SDS011;25200;53.394;10.414;2023-07-20T12:31:23;2.92;;;0.80;;
39518;SDS011;25200;53.394;10.414;2023-07-20T12:33:50;3.83;;;0.88;;
39518;SDS011;25200;53.394;10.414;2023-07-20T12:36:17;2.80;;;0.57;;
39518;SDS011;25200;53.394;10.414;2023-07-20T12:38:43;1.27;;;0.55;;
39518;SDS011;25200;53.394;10.414;2023-07-20T12:41:09;3.03;;;0.73;;
39518;SDS011;25200;53.394;10.414;2023-07-20T12:43:39;2.25;;;0.77;;
39518;SDS011;25200;53.394;10.414;2023-07-20T12:46:06;2.50;;;0.82;;
39518;SDS011;25200;53.394;10.414;2023-07-20T12:48:31;4.28;;;0.80;;
39518;SDS011;25200;53.394;10.414;2023-07-20T12:50:58;1.75;;;0.65;;
39518;SDS011;25200;53.394;10.414;2023-07-20T12:53:23;1.52;;;0.65;;
39518;SDS011;25200;53.394;10.414;2023-07-20T12:55:49;1.52;;;0.60;;
39518;SDS011;25200;53.394;10.414;2023-07-20T12:58:15;4.35;;;0.95;;
39518;SDS011;25200;53.394;10.414;2023-07-20T13:00:40;1.00;;;0.47;;
39518;SDS011;25200;53.394;10.414;2023-07-20T13:03:06;2.15;;;0.80;;
39518;SDS011;25200;53.394;10.414;2023-07-20T13:05:33;3.28;;;0.73;;
39518;SDS011;25200;53.394;10.414;2023-07-20T13:08:00;3.63;;;1.30;;
39518;SDS011;25200;53.394;10.414;2023-07-20T13:10:26;1.83;;;0.60;;
39518;SDS011;25200;53.394;10.414;2023-07-20T13:12:52;3.05;;;0.90;;
39518;SDS011;25200;53.394;10.414;2023-07-20T13:15:18;3.80;;;0.80;;
39518;SDS011;25200;53.394;10.414;2023-07-20T13:17:43;4.10;;;1.00;;
39518;SDS011;25200;53.394;10.414;2023-07-20T13:20:10;7.00;;;0.95;;
39518;SDS011;25200;53.394;10.414;2023-07-20T13:22:39;2.25;;;0.85;;
39518;SDS011;25200;53.394;10.414;2023-07-20T13:25:05;3.38;;;0.60;;
39518;SDS011;25200;53.394;10.414;2023-07-20T13:27:32;1.05;;;0.32;;
39518;SDS011;25200;53.394;10.414;2023-07-20T13:29:58;2.40;;;0.60;;
39518;SDS011;25200;53.394;10.414;2023-07-20T13:32:25;2.33;;;0.77;;
39518;SDS011;25200;53.394;10.414;2023-07-20T13:34:52;6.32;;;0.80;;
39518;SDS011;25200;53.394;10.414;2023-07-20T13:37:18;1.95;;;0.50;;
39518;SDS011;25200;53.394;10.414;2023-07-20T13:39:43;3.47;;;0.70;;
39518;SDS011;25200;53.394;10.414;2023-07-20T13:42:09;3.00;;;0.73;;
39518;SDS011;25200;53.394;10.414;2023-07-20T13:44:37;2.08;;;0.70;;
39518;SDS011;25200;53.394;10.414;2023-07-20T13:47:03;3.78;;;1.17;;
39518;SDS011;25200;53.394;10.414;2023-07-20T13:49:32;3.20;;;1.00;;
39518;SDS011;25200;53.394;10.414;2023-07-20T13:51:57;4.18;;;0.85;;
39518;SDS011;25200;53.394;10.414;2023-07-20T13:54:24;3.88;;;0.77;;
39518;SDS011;25200;53.394;10.414;2023-07-20T13:56:49;3.67;;;1.00;;
39518;SDS011;25200;53.394;10.414;2023-07-20T13:59:16;3.83;;;0.90;;
39518;SDS011;25200;53.394;10.414;2023-07-20T14:01:44;4.32;;;0.73;;
39518;SDS011;25200;53.394;10.414;2023-07-20T14:04:10;2.17;;;0.68;;
39518;SDS011;25200;53.394;10.414;2023-07-20T14:06:36;4.10;;;1.00;;
39518;SDS011;25200;53.394;10.414;2023-07-20T14:09:01;1.90;;;0.75;;
39518;SDS011;25200;53.394;10.414;2023-07-20T14:11:28;3.00;;;1.00;;
39518;SDS011;25200;53.394;10.414;2023-07-20T14:13:54;2.70;;;0.90;;
39518;SDS011;25200;53.394;10.414;2023-07-20T14:16:20;3.15;;;0.77;;
39518;SDS011;25200;53.394;10.414;2023-07-20T14:18:47;1.90;;;0.52;;
39518;SDS011;25200;53.394;10.414;2023-07-20T14:21:13;3.45;;;0.70;;
39518;SDS011;25200;53.394;10.414;2023-07-20T14:23:40;3.03;;;0.85;;
39518;SDS011;25200;53.394;10.414;2023-07-20T14:26:05;2.28;;;0.63;;
39518;SDS011;25200;53.394;10.414;2023-07-20T14:28:32;3.10;;;0.77;;
39518;SDS011;25200;53.394;10.414;2023-07-20T14:30:58;3.88;;;0.80;;
39518;SDS011;25200;53.394;10.414;2023-07-20T14:33:24;2.42;;;0.65;;
39518;SDS011;25200;53.394;10.414;2023-07-20T14:35:49;1.65;;;0.60;;
39518;SDS011;25200;53.394;10.414;2023-07-20T14:38:15;4.15;;;1.00;;
39518;SDS011;25200;53.394;10.414;2023-07-20T14:40:40;2.55;;;0.80;;
39518;SDS011;25200;53.394;10.414;2023-07-20T14:43:06;2.33;;;0.63;;
39518;SDS011;25200;53.394;10.414;2023-07-20T14:45:32;3.17;;;0.85;;
39518;SDS011;25200;53.394;10.414;2023-07-20T14:47:58;3.75;;;0.70;;
39518;SDS011;25200;53.394;10.414;2023-07-20T14:50:24;2.20;;;0.80;;
39518;SDS011;25200;53.394;10.414;2023-07-20T14:52:50;2.15;;;0.70;;
39518;SDS011;25200;53.394;10.414;2023-07-20T14:55:16;3.15;;;0.80;;
39518;SDS011;25200;53.394;10.414;2023-07-20T14:57:42;2.00;;;0.77;;
39518;SDS011;25200;53.394;10.414;2023-07-20T15:00:08;2.70;;;0.82;;
39518;SDS011;25200;53.394;10.414;2023-07-20T15:02:38;2.08;;;0.63;;